MAPA DE AEROPUERTO

INFORMACIÓN METAR y TAF

METAR FOR LPMA
ADDS - METARS form results

(1106 UTC 01 December 2020)
Data provider http://aviationweather.gov/metar/data/
 
METAR text: LPMA 011100Z 22018KT 9999 FEW015 FEW018CB 19/14 Q1009
Conditions at: LPMA (FUNCHAL/MADEIRA , PT) observed 1100 UTC 01 December 2020
Temperature: 19.0°C (66°F)
Dewpoint: 14.0°C (57°F) [RH = 73%]
Pressure (altimeter): 29.79 inches Hg (1009.0 mb)
Winds: from the SW (220 degrees) at 21 MPH (18 knots; 9.3 m/s)
Visibility: 6 or more miles (10+ km)
Ceiling: at least 12,000 feet AGL
Clouds: few clouds at 1500 feet AGL
few clouds at 1800 feet AGL
Weather: no significant weather observed at this time

METAR text: LPMA 011030Z 22018KT 9999 FEW015 FEW018CB 18/14 Q1009
Conditions at: LPMA (FUNCHAL/MADEIRA , PT) observed 1030 UTC 01 December 2020
Temperature: 18.0°C (64°F)
Dewpoint: 14.0°C (57°F) [RH = 77%]
Pressure (altimeter): 29.79 inches Hg (1009.0 mb)
Winds: from the SW (220 degrees) at 21 MPH (18 knots; 9.3 m/s)
Visibility: 6 or more miles (10+ km)
Ceiling: at least 12,000 feet AGL
Clouds: few clouds at 1500 feet AGL
few clouds at 1800 feet AGL
Weather: no significant weather observed at this time

Forecast for: LPMA (FUNCHAL/MADEIRA , PT)
Text: TAF LPMA 010500Z 0106/0206 23020KT 9999 SCT015 FEW018CB
Forecast period: 0600 UTC 01 December 2020 to 0300 UTC 02 December 2020
Forecast type: FROM: standard forecast or significant change
Winds: from the SW (230 degrees) at 23 MPH (20 knots; 10.3 m/s)
Visibility: 6 or more miles (10+ km)
Ceiling: at least 12,000 feet AGL
Clouds: scattered clouds at 1500 feet AGL
few clouds at 1800 feet AGL
Weather: no significant weather forecast for this period
Text: TEMPO 0106/0203 23025G35KT 5000 SHRA SCT008 BKN013 FEW015CB
Forecast period: 0600 UTC 01 December 2020 to 0300 UTC 02 December 2020
Forecast type: TEMPORARY: The following changes expected for less than half the time period
Winds: from the SW (230 degrees) at 29 MPH (25 knots; 12.9 m/s)
gusting to 40 MPH (35 knots; 18.0 m/s)
Visibility: 3 miles (5 km)
Ceiling: 1300 feet AGL
Clouds: scattered clouds at 800 feet AGL
broken clouds at 1300 feet AGL
few clouds at 1500 feet AGL
Weather: SHRA  (rain showers)
Text: PROB40
Forecast period: 0600 UTC 01 December 2020 to 0600 UTC 02 December 2020
Forecast type: TEMPORARY: The following changes expected for less than half the time period
Visibility: 1.86 miles (2.99 km)
Ceiling: at least 12,000 feet AGL
Clouds: scattered clouds at 1500 feet AGL
Weather: +TSRA  (heavy rain associated with thunderstorm(s))
Text: TEMPO 0106/0206 3000 +TSRA SCT015CB
Forecast period: 0300 to 0600 UTC 02 December 2020
Forecast type: BECOMING: Conditions expected to become as follows by 0600 UTC 02 December 2020
Winds: from the SW (220 degrees) at 12 MPH (10 knots; 5.1 m/s)
Visibility: 6 or more miles (10+ km)
Ceiling: at least 12,000 feet AGL
Clouds: scattered clouds at 1500 feet AGL
few clouds at 1800 feet AGL
Weather: no significant weather forecast for this period